createdAt,value
2018-05-27T00:02:23.515Z,15.89
2018-05-27T00:04:49.327Z,15.64
2018-05-27T00:07:15.134Z,15.59
2018-05-27T00:09:41.027Z,15.58
2018-05-27T00:12:06.831Z,15.56
2018-05-27T00:14:32.649Z,15.58
2018-05-27T00:16:58.474Z,15.59
2018-05-27T00:19:24.281Z,15.62
2018-05-27T00:21:50.080Z,15.60
2018-05-27T00:24:15.890Z,15.64
2018-05-27T00:26:41.682Z,15.59
2018-05-27T00:29:07.473Z,15.50
2018-05-27T00:31:33.630Z,15.45
2018-05-27T00:33:59.429Z,15.43
2018-05-27T00:36:25.219Z,15.48
2018-05-27T00:38:51.035Z,15.38
2018-05-27T00:41:16.833Z,15.34
2018-05-27T00:43:42.655Z,15.30
2018-05-27T00:46:08.477Z,15.20
2018-05-27T00:48:34.313Z,15.17
2018-05-27T00:51:00.100Z,15.01
2018-05-27T00:53:38.343Z,15.10
2018-05-27T00:56:04.157Z,15.02
2018-05-27T00:58:30.011Z,14.94
2018-05-27T01:00:55.830Z,14.99
2018-05-27T01:03:21.630Z,15.00
2018-05-27T01:05:47.473Z,14.96
2018-05-27T01:08:13.281Z,14.98
2018-05-27T01:10:39.082Z,14.96
2018-05-27T01:13:04.867Z,14.93
2018-05-27T01:15:30.715Z,14.88
2018-05-27T01:17:56.515Z,14.85
2018-05-27T01:20:22.349Z,14.82
2018-05-27T01:22:48.178Z,15.01
2018-05-27T01:25:13.994Z,15.01
2018-05-27T01:27:39.817Z,14.97
2018-05-27T01:30:05.661Z,14.95
2018-05-27T01:32:31.500Z,14.96
2018-05-27T01:34:57.365Z,14.96
2018-05-27T01:37:23.154Z,14.86
2018-05-27T01:39:48.954Z,14.73
2018-05-27T01:42:14.764Z,14.54
2018-05-27T01:44:40.572Z,14.58
2018-05-27T01:47:06.361Z,14.63
2018-05-27T01:49:32.161Z,14.62
2018-05-27T01:51:57.962Z,14.49
2018-05-27T01:54:23.749Z,14.57
2018-05-27T01:56:49.533Z,14.29
2018-05-27T01:59:15.436Z,14.30
2018-05-27T02:01:41.257Z,14.23
2018-05-27T02:04:07.065Z,14.26
2018-05-27T02:06:32.877Z,14.27
2018-05-27T02:08:58.684Z,14.29
2018-05-27T02:11:24.500Z,14.19
2018-05-27T02:13:50.297Z,14.07
2018-05-27T02:16:16.081Z,14.11
2018-05-27T02:18:42.242Z,14.14
2018-05-27T02:21:08.029Z,14.15
2018-05-27T02:23:33.825Z,14.07
2018-05-27T02:25:59.617Z,14.05
2018-05-27T02:28:25.445Z,14.12
2018-05-27T02:30:51.239Z,14.15
2018-05-27T02:33:17.022Z,14.13
2018-05-27T02:35:42.855Z,14.13
2018-05-27T02:38:08.686Z,14.17
2018-05-27T02:40:34.489Z,14.20
2018-05-27T02:43:00.304Z,14.14
2018-05-27T02:45:26.105Z,14.17
2018-05-27T02:47:51.906Z,14.17
2018-05-27T02:50:17.747Z,14.09
2018-05-27T02:52:43.546Z,14.12
2018-05-27T02:55:09.408Z,14.07
2018-05-27T02:57:35.192Z,14.05
2018-05-27T03:00:00.997Z,14.12
2018-05-27T03:02:26.785Z,14.15
2018-05-27T03:04:52.584Z,14.19
2018-05-27T03:07:18.390Z,14.21
2018-05-27T03:09:44.190Z,14.21
2018-05-27T03:12:09.974Z,14.21
2018-05-27T03:14:35.787Z,14.18
2018-05-27T03:17:01.594Z,14.06
2018-05-27T03:19:27.392Z,14.08
2018-05-27T03:21:53.210Z,14.05
2018-05-27T03:24:19.002Z,14.05
2018-05-27T03:26:44.794Z,14.09
2018-05-27T03:29:10.590Z,14.14
2018-05-27T03:31:36.430Z,14.14
2018-05-27T03:34:02.315Z,14.16
2018-05-27T03:36:28.126Z,14.16
2018-05-27T03:38:53.940Z,14.23
2018-05-27T03:41:19.757Z,14.22
2018-05-27T03:43:45.595Z,14.26
2018-05-27T03:46:11.406Z,14.32
2018-05-27T03:48:37.231Z,14.32
2018-05-27T03:51:03.012Z,14.31
2018-05-27T03:53:28.829Z,14.36
2018-05-27T03:55:54.634Z,14.37
2018-05-27T03:58:20.425Z,14.42
2018-05-27T04:00:46.226Z,14.39
2018-05-27T04:03:12.055Z,14.46
2018-05-27T04:05:50.269Z,14.50
2018-05-27T04:08:28.562Z,14.53
2018-05-27T04:10:54.373Z,14.59
2018-05-27T04:13:20.165Z,14.61
2018-05-27T04:15:45.992Z,14.63
2018-05-27T04:18:12.018Z,14.64
2018-05-27T04:20:37.801Z,14.67
2018-05-27T04:23:03.617Z,14.70
2018-05-27T04:25:29.698Z,14.77
2018-05-27T04:27:55.543Z,14.76
2018-05-27T04:30:22.083Z,14.81
2018-05-27T04:32:47.877Z,14.85
2018-05-27T04:35:13.701Z,14.94
2018-05-27T04:37:39.488Z,14.98
2018-05-27T04:40:05.274Z,14.93
2018-05-27T04:42:31.090Z,14.98
2018-05-27T04:44:56.914Z,15.01
2018-05-27T04:47:22.713Z,15.05
2018-05-27T04:49:48.545Z,15.14
2018-05-27T04:52:14.492Z,15.18
2018-05-27T04:54:40.284Z,15.21
2018-05-27T04:57:06.117Z,15.18
2018-05-27T04:59:31.931Z,15.14
2018-05-27T05:01:57.799Z,15.18
2018-05-27T05:04:23.600Z,15.14
2018-05-27T05:06:49.386Z,15.21
2018-05-27T05:09:15.187Z,15.23
2018-05-27T05:11:40.960Z,15.20
2018-05-27T05:14:06.757Z,15.21
2018-05-27T05:16:32.657Z,15.24
2018-05-27T05:18:58.460Z,15.28
2018-05-27T05:21:24.240Z,15.19
2018-05-27T05:23:50.041Z,15.05
2018-05-27T05:26:15.850Z,15.02
2018-05-27T05:28:41.949Z,15.11
2018-05-27T05:31:07.743Z,15.14
2018-05-27T05:33:33.545Z,15.17
2018-05-27T05:35:59.360Z,15.11
2018-05-27T05:38:25.181Z,15.14
2018-05-27T05:40:51.015Z,15.27
2018-05-27T05:43:16.814Z,15.28
2018-05-27T05:45:42.633Z,15.29
2018-05-27T05:48:08.452Z,15.21
2018-05-27T05:50:34.269Z,15.16
2018-05-27T05:53:00.086Z,15.20
2018-05-27T05:55:25.901Z,15.23
2018-05-27T05:57:51.681Z,15.31
2018-05-27T06:00:17.478Z,15.28
2018-05-27T06:02:43.285Z,15.37
2018-05-27T06:05:09.080Z,15.34
2018-05-27T06:07:34.869Z,15.33
2018-05-27T06:10:03.957Z,15.48
2018-05-27T06:12:29.824Z,15.50
2018-05-27T06:14:55.773Z,15.56
2018-05-27T06:17:21.625Z,15.55
2018-05-27T06:19:47.468Z,15.46
2018-05-27T06:22:13.570Z,15.55
2018-05-27T06:24:39.378Z,15.61
2018-05-27T06:27:05.821Z,15.63
2018-05-27T06:29:31.627Z,15.59
2018-05-27T06:31:57.726Z,15.60
2018-05-27T06:34:23.531Z,15.67
2018-05-27T06:36:49.378Z,15.78
2018-05-27T06:39:15.207Z,15.92
2018-05-27T06:41:40.987Z,16.04
2018-05-27T06:44:06.785Z,16.17
2018-05-27T06:46:32.612Z,16.26
2018-05-27T06:48:58.417Z,16.39
2018-05-27T06:51:24.277Z,16.42
2018-05-27T06:53:50.113Z,16.51
2018-05-27T06:56:16.047Z,16.65
2018-05-27T06:58:41.855Z,16.70
2018-05-27T07:01:08.425Z,16.63
2018-05-27T07:03:34.231Z,16.53
2018-05-27T07:06:00.190Z,16.51
2018-05-27T07:08:26.042Z,16.60
2018-05-27T07:10:51.842Z,16.66
2018-05-27T07:13:17.710Z,16.62
2018-05-27T07:15:43.495Z,16.72
2018-05-27T07:18:09.853Z,16.74
2018-05-27T07:20:35.932Z,16.75
2018-05-27T07:23:02.191Z,16.72
2018-05-27T07:25:28.023Z,16.54
2018-05-27T07:27:54.073Z,16.38
2018-05-27T07:30:19.855Z,16.44
2018-05-27T07:32:46.181Z,16.52
2018-05-27T07:35:11.980Z,16.65
2018-05-27T07:37:37.806Z,16.55
2018-05-27T07:40:04.568Z,16.53
2018-05-27T07:42:30.439Z,16.45
2018-05-27T07:44:56.238Z,16.50
2018-05-27T07:47:22.087Z,16.48
2018-05-27T07:49:47.972Z,16.41
2018-05-27T07:52:14.198Z,16.35
2018-05-27T07:54:40.020Z,16.45
2018-05-27T07:57:06.081Z,16.46
2018-05-27T07:59:32.244Z,16.50
2018-05-27T08:01:58.474Z,16.56
2018-05-27T08:04:24.274Z,16.59
2018-05-27T08:06:50.796Z,16.72
2018-05-27T08:09:16.577Z,16.77
2018-05-27T08:11:42.536Z,16.72
2018-05-27T08:14:08.490Z,16.72
2018-05-27T08:16:34.305Z,16.72
2018-05-27T08:19:00.226Z,16.85
2018-05-27T08:21:26.025Z,16.83
2018-05-27T08:23:51.816Z,16.94
2018-05-27T08:26:17.618Z,17.00
2018-05-27T08:28:43.450Z,16.98
2018-05-27T08:31:09.239Z,17.10
2018-05-27T08:33:35.185Z,17.00
2018-05-27T08:36:00.978Z,17.07
2018-05-27T08:38:26.788Z,17.23
2018-05-27T08:40:52.584Z,17.32
2018-05-27T08:43:18.469Z,17.34
2018-05-27T08:45:44.270Z,17.57
2018-05-27T08:48:10.070Z,17.72
2018-05-27T08:50:35.901Z,18.06
2018-05-27T08:53:01.703Z,18.33
2018-05-27T08:55:27.514Z,18.40
2018-05-27T08:57:53.338Z,18.25
2018-05-27T09:00:19.220Z,18.24
2018-05-27T09:02:45.036Z,17.97
2018-05-27T09:05:10.870Z,17.97
2018-05-27T09:07:36.669Z,18.01
2018-05-27T09:10:02.474Z,17.88
2018-05-27T09:12:28.277Z,18.11
2018-05-27T09:14:54.071Z,18.50
2018-05-27T09:17:19.865Z,18.63
2018-05-27T09:19:45.654Z,18.80
2018-05-27T09:22:11.446Z,18.81
2018-05-27T09:24:37.387Z,18.80
2018-05-27T09:27:03.863Z,18.76
2018-05-27T09:29:29.678Z,18.82
2018-05-27T09:31:55.465Z,18.90
2018-05-27T09:34:21.300Z,19.11
2018-05-27T09:36:47.119Z,19.11
2018-05-27T09:39:12.926Z,19.18
2018-05-27T09:41:39.091Z,19.40
2018-05-27T09:44:04.926Z,19.43
2018-05-27T09:46:30.735Z,19.41
2018-05-27T09:48:57.422Z,19.47
2018-05-27T09:51:23.265Z,19.78
2018-05-27T09:53:49.074Z,20.03
2018-05-27T09:56:14.874Z,20.26
2018-05-27T09:58:40.679Z,20.18
2018-05-27T10:01:06.485Z,20.40
2018-05-27T10:03:32.271Z,20.62
2018-05-27T10:05:58.076Z,20.81
2018-05-27T10:08:23.905Z,20.83
2018-05-27T10:10:49.687Z,20.84
2018-05-27T10:13:15.479Z,20.72
2018-05-27T10:15:41.304Z,20.75
2018-05-27T10:18:07.153Z,21.17
2018-05-27T10:20:32.957Z,21.40
2018-05-27T10:22:58.779Z,21.43
2018-05-27T10:25:24.573Z,21.39
2018-05-27T10:27:50.425Z,21.50
2018-05-27T10:30:16.246Z,21.42
2018-05-27T10:32:42.048Z,21.53
2018-05-27T10:35:07.841Z,21.56
2018-05-27T10:37:33.728Z,21.48
2018-05-27T10:39:59.560Z,21.64
2018-05-27T10:42:25.347Z,21.73
2018-05-27T10:44:51.274Z,21.72
2018-05-27T10:47:17.098Z,22.01
2018-05-27T10:49:42.877Z,22.20
2018-05-27T10:52:08.695Z,22.39
2018-05-27T10:54:34.486Z,22.41
2018-05-27T10:57:00.287Z,22.57
2018-05-27T10:59:26.089Z,22.51
2018-05-27T11:01:51.891Z,22.71
2018-05-27T11:04:17.717Z,22.49
2018-05-27T11:06:43.881Z,22.58
2018-05-27T11:09:09.721Z,22.53
2018-05-27T11:11:35.513Z,22.51
2018-05-27T11:14:01.530Z,22.70
2018-05-27T11:16:27.372Z,22.88
2018-05-27T11:18:53.404Z,22.71
2018-05-27T11:21:19.150Z,22.86
2018-05-27T11:23:45.471Z,22.91
2018-05-27T11:26:11.405Z,22.80
2018-05-27T11:28:37.225Z,22.96
2018-05-27T11:31:03.009Z,23.11
2018-05-27T11:33:29.066Z,22.91
2018-05-27T11:35:54.863Z,23.11
2018-05-27T11:38:20.641Z,22.79
2018-05-27T11:40:47.482Z,22.77
2018-05-27T11:43:13.426Z,22.80
2018-05-27T11:45:39.665Z,22.96
2018-05-27T11:48:05.479Z,23.14
2018-05-27T11:50:31.494Z,22.91
2018-05-27T11:52:57.298Z,23.01
2018-05-27T11:55:23.109Z,23.21
2018-05-27T11:57:48.904Z,23.05
2018-05-27T12:00:14.689Z,22.90
2018-05-27T12:02:40.544Z,23.00
2018-05-27T12:05:06.337Z,22.86
2018-05-27T12:07:32.462Z,22.74
2018-05-27T12:09:58.278Z,23.03
2018-05-27T12:12:24.125Z,23.25
2018-05-27T12:14:49.938Z,23.25
2018-05-27T12:17:15.758Z,23.03
2018-05-27T12:19:41.549Z,23.29
2018-05-27T12:22:07.391Z,23.62
2018-05-27T12:24:33.194Z,23.83
2018-05-27T12:26:59.018Z,24.06
2018-05-27T12:29:24.944Z,23.84
2018-05-27T12:31:50.725Z,24.25
2018-05-27T12:34:16.506Z,24.31
2018-05-27T12:36:42.306Z,24.04
2018-05-27T12:39:08.090Z,23.81
2018-05-27T12:41:33.873Z,24.24
2018-05-27T12:43:59.677Z,24.75
2018-05-27T12:46:25.485Z,24.93
2018-05-27T12:48:51.300Z,25.04
2018-05-27T12:51:17.101Z,24.71
2018-05-27T12:53:42.904Z,25.16
2018-05-27T12:56:08.950Z,24.83
2018-05-27T12:58:34.750Z,24.89
2018-05-27T13:01:00.585Z,24.91
2018-05-27T13:03:26.401Z,25.00
2018-05-27T13:05:52.184Z,25.14
2018-05-27T13:08:17.985Z,25.74
2018-05-27T13:10:43.871Z,25.65
2018-05-27T13:13:09.654Z,25.81
2018-05-27T13:15:35.453Z,25.77
2018-05-27T13:18:01.235Z,25.37
2018-05-27T13:20:27.047Z,25.45
2018-05-27T13:22:52.847Z,25.83
2018-05-27T13:25:18.624Z,25.66
2018-05-27T13:27:44.449Z,25.98
2018-05-27T13:30:10.237Z,25.34
2018-05-27T13:32:36.041Z,25.30
2018-05-27T13:35:01.877Z,25.81
2018-05-27T13:37:27.685Z,25.60
2018-05-27T13:39:53.474Z,26.31
2018-05-27T13:42:19.256Z,26.09
2018-05-27T13:44:45.301Z,26.14
2018-05-27T13:47:11.109Z,26.04
2018-05-27T13:49:36.875Z,25.77
2018-05-27T13:52:02.673Z,25.57
2018-05-27T13:54:28.441Z,26.11
2018-05-27T13:56:54.249Z,25.86
2018-05-27T13:59:20.029Z,25.92
2018-05-27T14:01:45.812Z,26.27
2018-05-27T14:04:11.613Z,25.90
2018-05-27T14:06:37.389Z,25.77
2018-05-27T14:09:03.216Z,26.05
2018-05-27T14:11:28.996Z,26.01
2018-05-27T14:13:54.768Z,25.91
2018-05-27T14:16:20.569Z,25.65
2018-05-27T14:18:46.357Z,25.78
2018-05-27T14:21:12.141Z,25.97
2018-05-27T14:23:37.949Z,25.98
2018-05-27T14:26:03.731Z,25.65
2018-05-27T14:28:29.518Z,25.48
2018-05-27T14:30:55.336Z,25.82
2018-05-27T14:33:21.206Z,25.87
2018-05-27T14:35:46.945Z,25.76
2018-05-27T14:38:12.737Z,25.46
2018-05-27T14:40:38.513Z,25.52
2018-05-27T14:43:04.321Z,25.11
2018-05-27T14:45:30.109Z,25.51
2018-05-27T14:47:55.906Z,25.40
2018-05-27T14:50:21.688Z,25.43
2018-05-27T14:52:47.468Z,25.06
2018-05-27T14:55:13.261Z,24.71
2018-05-27T14:57:39.058Z,24.57
2018-05-27T15:00:04.853Z,24.66
2018-05-27T15:02:30.741Z,24.57
2018-05-27T15:04:56.527Z,24.40
2018-05-27T15:07:22.305Z,24.54
2018-05-27T15:09:48.370Z,24.27
2018-05-27T15:12:14.203Z,24.32
2018-05-27T15:14:39.968Z,23.94
2018-05-27T15:17:05.781Z,24.00
2018-05-27T15:19:31.573Z,23.71
2018-05-27T15:21:57.362Z,23.51
2018-05-27T15:24:23.177Z,23.57
2018-05-27T15:26:48.966Z,23.52
2018-05-27T15:29:14.749Z,23.20
2018-05-27T15:31:40.557Z,23.37
2018-05-27T15:34:06.359Z,23.28
2018-05-27T15:36:32.245Z,23.20
2018-05-27T15:38:58.041Z,23.22
2018-05-27T15:41:23.841Z,23.17
2018-05-27T15:43:49.613Z,23.25
2018-05-27T15:46:15.403Z,23.16
2018-05-27T15:48:41.174Z,23.22
2018-05-27T15:51:06.963Z,23.20
2018-05-27T15:53:32.753Z,23.36
2018-05-27T15:55:58.534Z,23.64
2018-05-27T15:58:24.362Z,23.75
2018-05-27T16:00:50.133Z,23.82
2018-05-27T16:03:15.934Z,23.51
2018-05-27T16:05:41.747Z,23.29
2018-05-27T16:08:07.545Z,23.25
2018-05-27T16:10:33.333Z,23.31
2018-05-27T16:12:59.128Z,23.05
2018-05-27T16:15:24.931Z,22.93
2018-05-27T16:17:50.720Z,22.85
2018-05-27T16:20:16.528Z,22.86
2018-05-27T16:22:42.417Z,23.12
2018-05-27T16:25:08.193Z,23.18
2018-05-27T16:27:33.992Z,22.99
2018-05-27T16:29:59.782Z,23.12
2018-05-27T16:32:25.576Z,23.03
2018-05-27T16:34:51.366Z,22.87
2018-05-27T16:37:17.186Z,22.76
2018-05-27T16:39:42.969Z,22.59
2018-05-27T16:42:08.759Z,22.41
2018-05-27T16:44:34.570Z,22.29
2018-05-27T16:47:00.353Z,22.30
2018-05-27T16:49:26.128Z,22.29
2018-05-27T16:51:51.999Z,22.10
2018-05-27T16:54:17.802Z,22.14
2018-05-27T16:56:43.596Z,22.17
2018-05-27T16:59:09.378Z,22.23
2018-05-27T17:01:35.165Z,22.20
2018-05-27T17:04:00.949Z,22.19
2018-05-27T17:06:26.757Z,22.19
2018-05-27T17:08:52.549Z,22.09
2018-05-27T17:11:18.463Z,21.91
2018-05-27T17:13:44.279Z,21.82
2018-05-27T17:16:10.117Z,21.67
2018-05-27T17:18:37.286Z,21.59
2018-05-27T17:21:03.598Z,21.51
2018-05-27T17:23:29.422Z,21.55
2018-05-27T17:25:55.498Z,21.32
2018-05-27T17:28:21.350Z,21.45
2018-05-27T17:30:47.133Z,21.58
2018-05-27T17:33:13.136Z,21.55
2018-05-27T17:35:39.088Z,21.47
2018-05-27T17:38:05.160Z,21.39
2018-05-27T17:40:31.022Z,21.28
2018-05-27T17:42:56.812Z,21.10
2018-05-27T17:45:22.628Z,21.10
2018-05-27T17:47:48.740Z,21.04
2018-05-27T17:50:14.561Z,20.88
2018-05-27T17:52:40.374Z,21.00
2018-05-27T17:55:06.157Z,20.97
2018-05-27T17:57:31.952Z,20.93
2018-05-27T17:59:57.771Z,20.90
2018-05-27T18:02:23.561Z,20.63
2018-05-27T18:04:49.345Z,20.41
2018-05-27T18:07:15.129Z,20.25
2018-05-27T18:09:40.929Z,20.29
2018-05-27T18:12:06.872Z,20.18
2018-05-27T18:14:32.653Z,20.15
2018-05-27T18:16:58.469Z,20.20
2018-05-27T18:19:24.250Z,19.98
2018-05-27T18:21:50.024Z,19.82
2018-05-27T18:24:16.142Z,19.80
2018-05-27T18:26:41.946Z,19.69
2018-05-27T18:29:07.953Z,19.65
2018-05-27T18:31:33.773Z,19.53
2018-05-27T18:33:59.566Z,19.55
2018-05-27T18:36:25.364Z,19.58
2018-05-27T18:38:51.306Z,19.55
2018-05-27T18:41:17.033Z,19.53
2018-05-27T18:43:43.110Z,19.44
2018-05-27T18:46:08.964Z,19.49
2018-05-27T18:48:34.750Z,19.41
2018-05-27T18:51:00.546Z,19.31
2018-05-27T18:53:26.405Z,19.16
2018-05-27T18:55:52.167Z,19.10
2018-05-27T18:58:17.940Z,19.04
2018-05-27T19:00:43.864Z,19.09
2018-05-27T19:03:09.679Z,19.18
2018-05-27T19:05:35.468Z,19.08
2018-05-27T19:08:01.277Z,18.97
2018-05-27T19:10:27.071Z,18.83
2018-05-27T19:12:53.074Z,18.75
2018-05-27T19:15:18.884Z,18.80
2018-05-27T19:17:44.906Z,18.80
2018-05-27T19:20:10.701Z,18.62
2018-05-27T19:22:36.523Z,18.59
2018-05-27T19:25:02.372Z,18.51
2018-05-27T19:27:28.166Z,18.35
2018-05-27T19:29:54.010Z,18.42
2018-05-27T19:32:19.810Z,18.25
2018-05-27T19:34:45.593Z,18.23
2018-05-27T19:37:11.388Z,18.25
2018-05-27T19:39:37.596Z,18.29
2018-05-27T19:42:03.491Z,18.13
2018-05-27T19:44:29.290Z,18.05
2018-05-27T19:46:55.095Z,18.03
2018-05-27T19:49:22.060Z,18.06
2018-05-27T19:51:48.484Z,18.11
2018-05-27T19:54:14.273Z,17.93
2018-05-27T19:56:40.732Z,17.86
2018-05-27T19:59:06.532Z,17.83
2018-05-27T20:01:32.782Z,17.71
2018-05-27T20:03:58.556Z,17.69
2018-05-27T20:06:24.360Z,17.72
2018-05-27T20:08:50.138Z,17.74
2018-05-27T20:11:15.916Z,17.77
2018-05-27T20:13:42.424Z,17.73
2018-05-27T20:16:08.203Z,17.57
2018-05-27T20:18:34.795Z,17.59
2018-05-27T20:21:00.624Z,17.56
2018-05-27T20:23:26.609Z,17.54
2018-05-27T20:25:52.409Z,17.60
2018-05-27T20:28:18.586Z,17.65
2018-05-27T20:30:44.397Z,17.63
2018-05-27T20:33:10.257Z,17.46
2018-05-27T20:35:36.060Z,17.40
2018-05-27T20:38:01.860Z,17.40
2018-05-27T20:40:27.881Z,17.42
2018-05-27T20:42:53.673Z,17.31
2018-05-27T20:45:19.467Z,17.25
2018-05-27T20:47:45.258Z,17.26
2018-05-27T20:50:11.308Z,17.20
2018-05-27T20:52:37.104Z,17.22
2018-05-27T20:55:03.284Z,17.18
2018-05-27T20:57:29.085Z,17.14
2018-05-27T20:59:54.862Z,17.05
2018-05-27T21:02:20.670Z,17.00
2018-05-27T21:04:46.734Z,16.94
2018-05-27T21:07:12.661Z,16.96
2018-05-27T21:09:38.442Z,17.10
2018-05-27T21:12:04.326Z,17.09
2018-05-27T21:14:30.148Z,17.11
2018-05-27T21:16:56.339Z,17.16
2018-05-27T21:19:22.169Z,17.20
2018-05-27T21:21:47.999Z,17.29
2018-05-27T21:24:13.792Z,17.33
2018-05-27T21:26:39.676Z,17.19
2018-05-27T21:29:05.496Z,17.17
2018-05-27T21:31:31.317Z,17.11
2018-05-27T21:33:57.087Z,17.07
2018-05-27T21:36:22.896Z,17.09
2018-05-27T21:38:48.712Z,17.09
2018-05-27T21:41:14.501Z,16.95
2018-05-27T21:43:40.310Z,16.97
2018-05-27T21:46:06.284Z,16.97
2018-05-27T21:48:32.056Z,16.91
2018-05-27T21:50:57.848Z,16.76
2018-05-27T21:53:23.635Z,16.79
2018-05-27T21:55:49.710Z,16.83
2018-05-27T21:58:15.520Z,16.74
2018-05-27T22:00:41.317Z,16.73
2018-05-27T22:03:07.205Z,16.66
2018-05-27T22:05:33.001Z,16.59
2018-05-27T22:07:58.785Z,16.61
2018-05-27T22:10:24.585Z,16.63
2018-05-27T22:12:50.388Z,16.65
2018-05-27T22:15:16.201Z,16.69
2018-05-27T22:17:41.980Z,16.66
2018-05-27T22:20:07.761Z,16.80
2018-05-27T22:22:33.561Z,16.81
2018-05-27T22:24:59.343Z,16.78
2018-05-27T22:27:25.131Z,16.69
2018-05-27T22:29:50.924Z,16.81
2018-05-27T22:32:16.698Z,16.72
2018-05-27T22:34:42.536Z,16.68
2018-05-27T22:37:08.328Z,16.89
2018-05-27T22:39:34.111Z,16.75
2018-05-27T22:41:59.903Z,16.67
2018-05-27T22:44:25.714Z,16.88
2018-05-27T22:46:51.525Z,16.87
2018-05-27T22:49:17.323Z,16.95
2018-05-27T22:51:43.158Z,16.98
2018-05-27T22:54:08.936Z,17.02
2018-05-27T22:56:34.772Z,16.92
2018-05-27T22:59:00.562Z,16.89
2018-05-27T23:01:26.358Z,16.95
2018-05-27T23:03:52.153Z,16.96
2018-05-27T23:06:17.958Z,16.83
2018-05-27T23:08:43.744Z,16.86
2018-05-27T23:11:09.545Z,16.93
2018-05-27T23:13:35.331Z,16.94
2018-05-27T23:16:01.134Z,16.95
2018-05-27T23:18:26.916Z,16.95
2018-05-27T23:20:52.704Z,17.02
2018-05-27T23:23:18.615Z,16.90
2018-05-27T23:25:44.391Z,16.83
2018-05-27T23:28:10.191Z,16.85
2018-05-27T23:30:35.974Z,16.91
2018-05-27T23:33:01.771Z,16.94
2018-05-27T23:35:27.582Z,17.09
2018-05-27T23:37:53.368Z,17.00
2018-05-27T23:40:19.157Z,17.03
2018-05-27T23:42:45.097Z,16.94
2018-05-27T23:45:10.885Z,16.90
2018-05-27T23:47:36.789Z,16.99
2018-05-27T23:50:02.643Z,17.03
2018-05-27T23:52:28.429Z,17.01
2018-05-27T23:54:54.216Z,17.05
2018-05-27T23:57:20.028Z,17.03
2018-05-27T23:59:45.818Z,17.01
